Decoded Metar for LFPN (TOUSSOUS-LE-NOBLE in FRANCE) (IATA:TNF) | Meteo·Mobile Aviation Weather
aviador You're here:

LFPN Decoded Metar

TOUSSOUS-LE-NOBLE in FRANCE
Report Time2019-07-22 16:30:00
UTC Time2019-07-22 16:38:56
Flight Rules vfr VFR
Wind120° at 07 kt
W.Decomp.*RWY 07: 4.4 kt HW 5.4 kt RCW
Visibility9999 m
Phenomena:N/A
Clouds:N/A
Expected CloudBase > 8,000 ft AGL from Temp-Dew spread
CeilingNone
Temp31°C (ISA +17)
Dew Point11°C (29% RH)
Heat Index29.6°C
AAT28.8°C
QNH1021 hPa
Density Alt2,402 ft
Elevation538 ft
Report Wrong Elevation
Raw Report
METAR LFPN 221630Z AUTO 12007KT 080V160 CAVOK 31/11 Q1021 NOSIG=

Extra information for LFPN:More info

Metar Taf Metar & Taf Last 4 Metars F.Rules Stats Wind Profile Meteogram Temp Stats Airport Information Weather charts Add Link Nearby VenuesMetar ALERT Operation Metar Decoded Social comments